sensor_id;sensor_type;location;lat;lon;timestamp;P1;durP1;ratioP1;P2;durP2;ratioP2
51495;SDS011;37572;52.094;4.870;2022-10-16T00:00:52;5.63;;;2.00;;
51495;SDS011;37572;52.094;4.870;2022-10-16T00:03:17;6.70;;;1.58;;
51495;SDS011;37572;52.094;4.870;2022-10-16T00:05:42;13.93;;;2.35;;
51495;SDS011;37572;52.094;4.870;2022-10-16T00:08:09;4.05;;;1.60;;
51495;SDS011;37572;52.094;4.870;2022-10-16T00:10:38;6.97;;;1.95;;
51495;SDS011;37572;52.094;4.870;2022-10-16T00:13:04;7.05;;;2.63;;
51495;SDS011;37572;52.094;4.870;2022-10-16T00:15:32;3.33;;;1.50;;
51495;SDS011;37572;52.094;4.870;2022-10-16T00:18:01;4.40;;;1.98;;
51495;SDS011;37572;52.094;4.870;2022-10-16T00:20:26;7.70;;;1.88;;
51495;SDS011;37572;52.094;4.870;2022-10-16T00:22:51;6.93;;;1.90;;
51495;SDS011;37572;52.094;4.870;2022-10-16T00:25:17;8.00;;;2.33;;
51495;SDS011;37572;52.094;4.870;2022-10-16T00:27:42;5.57;;;1.55;;
51495;SDS011;37572;52.094;4.870;2022-10-16T00:30:07;4.40;;;2.63;;
51495;SDS011;37572;52.094;4.870;2022-10-16T00:32:33;5.88;;;2.05;;
51495;SDS011;37572;52.094;4.870;2022-10-16T00:34:58;5.40;;;1.65;;
51495;SDS011;37572;52.094;4.870;2022-10-16T00:37:24;4.45;;;1.30;;
51495;SDS011;37572;52.094;4.870;2022-10-16T00:39:50;4.22;;;2.17;;
51495;SDS011;37572;52.094;4.870;2022-10-16T00:42:16;3.33;;;1.95;;
51495;SDS011;37572;52.094;4.870;2022-10-16T00:44:50;7.30;;;2.30;;
51495;SDS011;37572;52.094;4.870;2022-10-16T00:47:34;4.18;;;1.85;;
51495;SDS011;37572;52.094;4.870;2022-10-16T00:52:44;3.45;;;1.30;;
51495;SDS011;37572;52.094;4.870;2022-10-16T00:55:13;4.35;;;1.85;;
51495;SDS011;37572;52.094;4.870;2022-10-16T00:57:39;1.83;;;1.13;;
51495;SDS011;37572;52.094;4.870;2022-10-16T01:00:06;2.53;;;1.35;;
51495;SDS011;37572;52.094;4.870;2022-10-16T01:02:33;4.60;;;1.92;;
51495;SDS011;37572;52.094;4.870;2022-10-16T01:04:58;3.03;;;1.70;;
51495;SDS011;37572;52.094;4.870;2022-10-16T01:13:20;5.90;;;2.00;;
51495;SDS011;37572;52.094;4.870;2022-10-16T01:16:05;3.80;;;1.75;;
51495;SDS011;37572;52.094;4.870;2022-10-16T01:21:13;5.15;;;2.10;;
51495;SDS011;37572;52.094;4.870;2022-10-16T01:24:33;8.05;;;2.25;;
51495;SDS011;37572;52.094;4.870;2022-10-16T01:32:33;5.97;;;1.90;;
51495;SDS011;37572;52.094;4.870;2022-10-16T01:40:32;2.15;;;1.48;;
51495;SDS011;37572;52.094;4.870;2022-10-16T01:43:04;4.15;;;1.60;;
51495;SDS011;37572;52.094;4.870;2022-10-16T01:45:33;8.32;;;1.92;;
51495;SDS011;37572;52.094;4.870;2022-10-16T01:48:00;6.75;;;1.63;;
51495;SDS011;37572;52.094;4.870;2022-10-16T01:50:29;8.05;;;2.60;;
51495;SDS011;37572;52.094;4.870;2022-10-16T01:52:58;2.92;;;1.35;;
51495;SDS011;37572;52.094;4.870;2022-10-16T01:55:29;7.25;;;1.77;;
51495;SDS011;37572;52.094;4.870;2022-10-16T01:57:59;5.68;;;2.13;;
51495;SDS011;37572;52.094;4.870;2022-10-16T02:00:27;4.80;;;2.20;;
51495;SDS011;37572;52.094;4.870;2022-10-16T02:02:54;8.82;;;2.35;;
51495;SDS011;37572;52.094;4.870;2022-10-16T02:05:24;5.65;;;1.70;;
51495;SDS011;37572;52.094;4.870;2022-10-16T02:07:53;6.00;;;2.00;;
51495;SDS011;37572;52.094;4.870;2022-10-16T02:10:19;6.18;;;2.35;;
51495;SDS011;37572;52.094;4.870;2022-10-16T02:12:50;3.13;;;2.00;;
51495;SDS011;37572;52.094;4.870;2022-10-16T02:15:21;3.58;;;2.20;;
51495;SDS011;37572;52.094;4.870;2022-10-16T02:17:46;3.83;;;1.92;;
51495;SDS011;37572;52.094;4.870;2022-10-16T02:20:12;4.80;;;2.00;;
51495;SDS011;37572;52.094;4.870;2022-10-16T02:22:42;7.13;;;2.90;;
51495;SDS011;37572;52.094;4.870;2022-10-16T02:25:19;4.32;;;2.53;;
51495;SDS011;37572;52.094;4.870;2022-10-16T02:27:53;6.28;;;2.33;;
51495;SDS011;37572;52.094;4.870;2022-10-16T02:30:27;9.63;;;2.60;;
51495;SDS011;37572;52.094;4.870;2022-10-16T02:32:56;5.55;;;2.45;;
51495;SDS011;37572;52.094;4.870;2022-10-16T02:35:25;9.95;;;3.53;;
51495;SDS011;37572;52.094;4.870;2022-10-16T02:37:52;7.43;;;2.95;;
51495;SDS011;37572;52.094;4.870;2022-10-16T02:40:18;7.70;;;3.08;;
51495;SDS011;37572;52.094;4.870;2022-10-16T02:42:44;5.28;;;2.65;;
51495;SDS011;37572;52.094;4.870;2022-10-16T02:45:15;3.50;;;2.88;;
51495;SDS011;37572;52.094;4.870;2022-10-16T02:47:41;6.60;;;2.53;;
51495;SDS011;37572;52.094;4.870;2022-10-16T02:50:06;6.90;;;2.72;;
51495;SDS011;37572;52.094;4.870;2022-10-16T02:52:32;4.53;;;2.33;;
51495;SDS011;37572;52.094;4.870;2022-10-16T02:54:57;3.58;;;2.15;;
51495;SDS011;37572;52.094;4.870;2022-10-16T02:57:23;3.25;;;2.33;;
51495;SDS011;37572;52.094;4.870;2022-10-16T02:59:48;4.82;;;2.47;;
51495;SDS011;37572;52.094;4.870;2022-10-16T03:02:13;3.63;;;2.20;;
51495;SDS011;37572;52.094;4.870;2022-10-16T03:04:38;4.88;;;2.80;;
51495;SDS011;37572;52.094;4.870;2022-10-16T03:07:04;4.63;;;2.42;;
51495;SDS011;37572;52.094;4.870;2022-10-16T03:09:29;3.95;;;2.60;;
51495;SDS011;37572;52.094;4.870;2022-10-16T03:11:55;5.95;;;2.55;;
51495;SDS011;37572;52.094;4.870;2022-10-16T03:14:20;6.82;;;2.50;;
51495;SDS011;37572;52.094;4.870;2022-10-16T03:16:46;3.75;;;2.40;;
51495;SDS011;37572;52.094;4.870;2022-10-16T03:19:11;7.72;;;2.92;;
51495;SDS011;37572;52.094;4.870;2022-10-16T03:21:36;4.97;;;2.28;;
51495;SDS011;37572;52.094;4.870;2022-10-16T03:24:01;5.20;;;2.63;;
51495;SDS011;37572;52.094;4.870;2022-10-16T03:26:27;5.15;;;2.85;;
51495;SDS011;37572;52.094;4.870;2022-10-16T03:28:52;5.00;;;2.15;;
51495;SDS011;37572;52.094;4.870;2022-10-16T03:31:17;7.60;;;2.78;;
51495;SDS011;37572;52.094;4.870;2022-10-16T03:33:43;6.20;;;2.60;;
51495;SDS011;37572;52.094;4.870;2022-10-16T03:36:08;7.90;;;2.75;;
51495;SDS011;37572;52.094;4.870;2022-10-16T03:38:33;4.60;;;2.67;;
51495;SDS011;37572;52.094;4.870;2022-10-16T03:40:59;3.97;;;2.33;;
51495;SDS011;37572;52.094;4.870;2022-10-16T03:43:24;5.35;;;2.70;;
51495;SDS011;37572;52.094;4.870;2022-10-16T03:45:50;6.40;;;2.88;;
51495;SDS011;37572;52.094;4.870;2022-10-16T03:48:16;5.47;;;2.55;;
51495;SDS011;37572;52.094;4.870;2022-10-16T03:50:41;6.60;;;2.28;;
51495;SDS011;37572;52.094;4.870;2022-10-16T03:53:07;3.83;;;2.25;;
51495;SDS011;37572;52.094;4.870;2022-10-16T03:55:34;4.82;;;2.50;;
51495;SDS011;37572;52.094;4.870;2022-10-16T03:57:59;4.13;;;2.28;;
51495;SDS011;37572;52.094;4.870;2022-10-16T04:00:25;4.88;;;2.92;;
51495;SDS011;37572;52.094;4.870;2022-10-16T04:02:50;4.25;;;2.30;;
51495;SDS011;37572;52.094;4.870;2022-10-16T04:05:15;5.18;;;2.97;;
51495;SDS011;37572;52.094;4.870;2022-10-16T04:07:41;6.15;;;2.13;;
51495;SDS011;37572;52.094;4.870;2022-10-16T04:10:06;5.22;;;1.92;;
51495;SDS011;37572;52.094;4.870;2022-10-16T04:12:32;3.90;;;2.53;;
51495;SDS011;37572;52.094;4.870;2022-10-16T04:14:57;2.97;;;2.22;;
51495;SDS011;37572;52.094;4.870;2022-10-16T04:17:22;5.07;;;2.20;;
51495;SDS011;37572;52.094;4.870;2022-10-16T04:19:48;3.78;;;1.88;;
51495;SDS011;37572;52.094;4.870;2022-10-16T04:22:13;5.72;;;1.58;;
51495;SDS011;37572;52.094;4.870;2022-10-16T04:24:38;4.38;;;2.08;;
51495;SDS011;37572;52.094;4.870;2022-10-16T04:27:03;3.70;;;2.63;;
51495;SDS011;37572;52.094;4.870;2022-10-16T04:29:29;6.07;;;1.75;;
51495;SDS011;37572;52.094;4.870;2022-10-16T04:31:54;4.47;;;2.40;;
51495;SDS011;37572;52.094;4.870;2022-10-16T04:34:19;2.65;;;1.85;;
51495;SDS011;37572;52.094;4.870;2022-10-16T04:36:46;3.25;;;1.90;;
51495;SDS011;37572;52.094;4.870;2022-10-16T04:39:14;2.15;;;1.67;;
51495;SDS011;37572;52.094;4.870;2022-10-16T04:41:40;6.40;;;3.22;;
51495;SDS011;37572;52.094;4.870;2022-10-16T04:44:05;6.00;;;2.10;;
51495;SDS011;37572;52.094;4.870;2022-10-16T04:46:30;8.57;;;2.47;;
51495;SDS011;37572;52.094;4.870;2022-10-16T04:48:56;3.03;;;1.60;;
51495;SDS011;37572;52.094;4.870;2022-10-16T04:51:21;2.95;;;1.52;;
51495;SDS011;37572;52.094;4.870;2022-10-16T04:53:46;5.40;;;1.92;;
51495;SDS011;37572;52.094;4.870;2022-10-16T04:56:11;3.42;;;2.10;;
51495;SDS011;37572;52.094;4.870;2022-10-16T04:58:37;6.75;;;2.30;;
51495;SDS011;37572;52.094;4.870;2022-10-16T05:01:02;3.28;;;1.88;;
51495;SDS011;37572;52.094;4.870;2022-10-16T05:03:27;3.88;;;2.22;;
51495;SDS011;37572;52.094;4.870;2022-10-16T05:05:53;4.90;;;1.98;;
51495;SDS011;37572;52.094;4.870;2022-10-16T05:08:18;4.70;;;2.03;;
51495;SDS011;37572;52.094;4.870;2022-10-16T05:10:43;7.60;;;2.20;;
51495;SDS011;37572;52.094;4.870;2022-10-16T05:13:09;5.50;;;2.10;;
51495;SDS011;37572;52.094;4.870;2022-10-16T05:15:35;3.45;;;2.05;;
51495;SDS011;37572;52.094;4.870;2022-10-16T05:18:01;5.95;;;2.00;;
51495;SDS011;37572;52.094;4.870;2022-10-16T05:20:26;6.18;;;2.55;;
51495;SDS011;37572;52.094;4.870;2022-10-16T05:22:51;2.22;;;1.70;;
51495;SDS011;37572;52.094;4.870;2022-10-16T05:25:17;4.03;;;2.03;;
51495;SDS011;37572;52.094;4.870;2022-10-16T05:27:42;7.05;;;2.00;;
51495;SDS011;37572;52.094;4.870;2022-10-16T05:30:08;5.15;;;2.00;;
51495;SDS011;37572;52.094;4.870;2022-10-16T05:32:33;3.10;;;1.67;;
51495;SDS011;37572;52.094;4.870;2022-10-16T05:34:59;4.25;;;2.33;;
51495;SDS011;37572;52.094;4.870;2022-10-16T05:37:25;6.50;;;2.78;;
51495;SDS011;37572;52.094;4.870;2022-10-16T05:39:50;4.45;;;1.75;;
51495;SDS011;37572;52.094;4.870;2022-10-16T05:42:16;2.63;;;2.10;;
51495;SDS011;37572;52.094;4.870;2022-10-16T05:44:41;3.88;;;1.98;;
51495;SDS011;37572;52.094;4.870;2022-10-16T05:47:06;3.42;;;1.83;;
51495;SDS011;37572;52.094;4.870;2022-10-16T05:49:32;5.85;;;1.80;;
51495;SDS011;37572;52.094;4.870;2022-10-16T05:51:57;3.92;;;1.83;;
51495;SDS011;37572;52.094;4.870;2022-10-16T05:54:22;2.40;;;1.40;;
51495;SDS011;37572;52.094;4.870;2022-10-16T05:56:48;6.60;;;2.08;;
51495;SDS011;37572;52.094;4.870;2022-10-16T05:59:13;6.15;;;1.92;;
51495;SDS011;37572;52.094;4.870;2022-10-16T06:01:38;4.60;;;2.33;;
51495;SDS011;37572;52.094;4.870;2022-10-16T06:04:04;7.30;;;2.67;;
51495;SDS011;37572;52.094;4.870;2022-10-16T06:06:29;4.70;;;2.22;;
51495;SDS011;37572;52.094;4.870;2022-10-16T06:08:55;3.20;;;2.00;;
51495;SDS011;37572;52.094;4.870;2022-10-16T06:11:23;7.63;;;2.65;;
51495;SDS011;37572;52.094;4.870;2022-10-16T06:13:54;5.85;;;2.42;;
51495;SDS011;37572;52.094;4.870;2022-10-16T06:16:25;7.28;;;2.33;;
51495;SDS011;37572;52.094;4.870;2022-10-16T06:18:51;3.85;;;2.17;;
51495;SDS011;37572;52.094;4.870;2022-10-16T06:21:19;5.18;;;3.00;;
51495;SDS011;37572;52.094;4.870;2022-10-16T06:23:45;4.10;;;2.83;;
51495;SDS011;37572;52.094;4.870;2022-10-16T06:26:12;4.05;;;2.30;;
51495;SDS011;37572;52.094;4.870;2022-10-16T06:28:41;5.95;;;2.90;;
51495;SDS011;37572;52.094;4.870;2022-10-16T06:31:07;7.22;;;2.53;;
51495;SDS011;37572;52.094;4.870;2022-10-16T06:33:34;7.65;;;2.08;;
51495;SDS011;37572;52.094;4.870;2022-10-16T06:36:10;7.50;;;2.67;;
51495;SDS011;37572;52.094;4.870;2022-10-16T06:38:37;13.00;;;3.13;;
51495;SDS011;37572;52.094;4.870;2022-10-16T06:41:03;6.10;;;2.35;;
51495;SDS011;37572;52.094;4.870;2022-10-16T06:43:29;7.80;;;2.40;;
51495;SDS011;37572;52.094;4.870;2022-10-16T06:46:00;7.00;;;2.20;;
51495;SDS011;37572;52.094;4.870;2022-10-16T06:48:26;4.63;;;1.88;;
51495;SDS011;37572;52.094;4.870;2022-10-16T06:53:30;5.97;;;1.73;;
51495;SDS011;37572;52.094;4.870;2022-10-16T06:55:57;7.40;;;1.67;;
51495;SDS011;37572;52.094;4.870;2022-10-16T06:58:23;6.07;;;2.22;;
51495;SDS011;37572;52.094;4.870;2022-10-16T07:00:48;3.60;;;1.10;;
51495;SDS011;37572;52.094;4.870;2022-10-16T07:03:19;4.22;;;1.45;;
51495;SDS011;37572;52.094;4.870;2022-10-16T07:05:45;7.60;;;1.10;;
51495;SDS011;37572;52.094;4.870;2022-10-16T07:08:10;7.20;;;0.93;;
51495;SDS011;37572;52.094;4.870;2022-10-16T07:10:35;4.03;;;1.25;;
51495;SDS011;37572;52.094;4.870;2022-10-16T07:13:01;4.60;;;1.27;;
51495;SDS011;37572;52.094;4.870;2022-10-16T07:15:26;4.88;;;1.30;;
51495;SDS011;37572;52.094;4.870;2022-10-16T07:17:52;6.13;;;1.42;;
51495;SDS011;37572;52.094;4.870;2022-10-16T07:20:17;4.72;;;1.10;;
51495;SDS011;37572;52.094;4.870;2022-10-16T07:22:43;5.10;;;1.38;;
51495;SDS011;37572;52.094;4.870;2022-10-16T07:25:08;6.55;;;1.02;;
51495;SDS011;37572;52.094;4.870;2022-10-16T07:27:33;8.15;;;1.35;;
51495;SDS011;37572;52.094;4.870;2022-10-16T07:29:59;6.93;;;1.60;;
51495;SDS011;37572;52.094;4.870;2022-10-16T07:32:24;10.40;;;1.85;;
51495;SDS011;37572;52.094;4.870;2022-10-16T07:34:50;5.72;;;2.38;;
51495;SDS011;37572;52.094;4.870;2022-10-16T07:37:16;6.28;;;1.33;;
51495;SDS011;37572;52.094;4.870;2022-10-16T07:39:41;7.55;;;1.88;;
51495;SDS011;37572;52.094;4.870;2022-10-16T07:42:07;4.75;;;1.98;;
51495;SDS011;37572;52.094;4.870;2022-10-16T07:44:32;4.43;;;1.58;;
51495;SDS011;37572;52.094;4.870;2022-10-16T07:46:58;3.85;;;1.48;;
51495;SDS011;37572;52.094;4.870;2022-10-16T07:49:23;8.98;;;1.70;;
51495;SDS011;37572;52.094;4.870;2022-10-16T07:51:48;7.32;;;1.70;;
51495;SDS011;37572;52.094;4.870;2022-10-16T07:54:13;4.60;;;1.80;;
51495;SDS011;37572;52.094;4.870;2022-10-16T07:56:39;10.07;;;2.08;;
51495;SDS011;37572;52.094;4.870;2022-10-16T07:59:04;5.03;;;2.03;;
51495;SDS011;37572;52.094;4.870;2022-10-16T08:01:29;4.88;;;1.98;;
51495;SDS011;37572;52.094;4.870;2022-10-16T08:03:55;5.75;;;1.70;;
51495;SDS011;37572;52.094;4.870;2022-10-16T08:06:21;5.75;;;2.00;;
51495;SDS011;37572;52.094;4.870;2022-10-16T08:08:47;7.80;;;1.63;;
51495;SDS011;37572;52.094;4.870;2022-10-16T08:11:12;8.07;;;2.00;;
51495;SDS011;37572;52.094;4.870;2022-10-16T08:13:39;10.20;;;1.73;;
51495;SDS011;37572;52.094;4.870;2022-10-16T08:16:05;1.90;;;1.15;;
51495;SDS011;37572;52.094;4.870;2022-10-16T08:18:32;5.93;;;1.88;;
51495;SDS011;37572;52.094;4.870;2022-10-16T08:21:03;5.63;;;2.05;;
51495;SDS011;37572;52.094;4.870;2022-10-16T08:23:29;4.22;;;1.40;;
51495;SDS011;37572;52.094;4.870;2022-10-16T08:25:55;6.05;;;2.03;;
51495;SDS011;37572;52.094;4.870;2022-10-16T08:28:21;7.38;;;1.40;;
51495;SDS011;37572;52.094;4.870;2022-10-16T08:30:47;5.03;;;1.27;;
51495;SDS011;37572;52.094;4.870;2022-10-16T08:33:13;4.22;;;1.40;;
51495;SDS011;37572;52.094;4.870;2022-10-16T08:35:38;8.68;;;1.73;;
51495;SDS011;37572;52.094;4.870;2022-10-16T08:38:04;7.75;;;1.77;;
51495;SDS011;37572;52.094;4.870;2022-10-16T08:40:30;8.88;;;2.05;;
51495;SDS011;37572;52.094;4.870;2022-10-16T08:50:54;6.88;;;1.38;;
51495;SDS011;37572;52.094;4.870;2022-10-16T08:53:40;6.97;;;1.52;;
51495;SDS011;37572;52.094;4.870;2022-10-16T08:56:19;7.07;;;2.03;;
51495;SDS011;37572;52.094;4.870;2022-10-16T08:58:44;13.90;;;2.65;;
51495;SDS011;37572;52.094;4.870;2022-10-16T09:01:12;8.48;;;1.77;;
51495;SDS011;37572;52.094;4.870;2022-10-16T09:06:48;7.28;;;2.20;;
51495;SDS011;37572;52.094;4.870;2022-10-16T09:11:48;10.40;;;2.20;;
51495;SDS011;37572;52.094;4.870;2022-10-16T09:20:18;11.20;;;2.30;;
51495;SDS011;37572;52.094;4.870;2022-10-16T09:25:14;8.50;;;1.70;;
51495;SDS011;37572;52.094;4.870;2022-10-16T09:27:42;10.40;;;2.50;;
51495;SDS011;37572;52.094;4.870;2022-10-16T09:30:15;10.30;;;2.17;;
51495;SDS011;37572;52.094;4.870;2022-10-16T09:32:43;8.98;;;2.25;;
51495;SDS011;37572;52.094;4.870;2022-10-16T09:35:21;11.75;;;2.00;;
51495;SDS011;37572;52.094;4.870;2022-10-16T09:37:52;8.73;;;2.35;;
51495;SDS011;37572;52.094;4.870;2022-10-16T09:40:38;14.10;;;2.40;;
51495;SDS011;37572;52.094;4.870;2022-10-16T09:43:17;6.78;;;2.03;;
51495;SDS011;37572;52.094;4.870;2022-10-16T09:45:53;9.93;;;2.20;;
51495;SDS011;37572;52.094;4.870;2022-10-16T09:48:23;8.55;;;2.03;;
51495;SDS011;37572;52.094;4.870;2022-10-16T09:50:59;14.85;;;2.80;;
51495;SDS011;37572;52.094;4.870;2022-10-16T09:53:26;10.27;;;2.55;;
51495;SDS011;37572;52.094;4.870;2022-10-16T09:56:10;10.05;;;2.50;;
51495;SDS011;37572;52.094;4.870;2022-10-16T09:58:41;10.50;;;2.87;;
51495;SDS011;37572;52.094;4.870;2022-10-16T10:01:11;5.50;;;1.83;;
51495;SDS011;37572;52.094;4.870;2022-10-16T10:03:39;10.77;;;2.33;;
51495;SDS011;37572;52.094;4.870;2022-10-16T10:08:56;10.95;;;2.40;;
51495;SDS011;37572;52.094;4.870;2022-10-16T10:16:47;7.88;;;2.10;;
51495;SDS011;37572;52.094;4.870;2022-10-16T10:19:14;13.38;;;2.95;;
51495;SDS011;37572;52.094;4.870;2022-10-16T10:21:45;12.30;;;2.47;;
51495;SDS011;37572;52.094;4.870;2022-10-16T10:24:14;5.97;;;2.10;;
51495;SDS011;37572;52.094;4.870;2022-10-16T10:26:41;18.10;;;3.35;;
51495;SDS011;37572;52.094;4.870;2022-10-16T10:32:17;15.55;;;3.25;;
51495;SDS011;37572;52.094;4.870;2022-10-16T10:35:01;11.95;;;2.33;;
51495;SDS011;37572;52.094;4.870;2022-10-16T10:37:51;6.75;;;2.03;;
51495;SDS011;37572;52.094;4.870;2022-10-16T10:40:39;10.95;;;2.60;;
51495;SDS011;37572;52.094;4.870;2022-10-16T10:43:17;11.18;;;2.63;;
51495;SDS011;37572;52.094;4.870;2022-10-16T10:45:47;8.57;;;2.35;;
51495;SDS011;37572;52.094;4.870;2022-10-16T10:48:20;11.75;;;2.17;;
51495;SDS011;37572;52.094;4.870;2022-10-16T10:56:22;8.63;;;2.25;;
51495;SDS011;37572;52.094;4.870;2022-10-16T10:59:14;11.27;;;2.90;;
51495;SDS011;37572;52.094;4.870;2022-10-16T11:07:58;11.18;;;2.67;;
51495;SDS011;37572;52.094;4.870;2022-10-16T11:10:28;14.93;;;2.95;;
51495;SDS011;37572;52.094;4.870;2022-10-16T11:13:17;11.73;;;2.63;;
51495;SDS011;37572;52.094;4.870;2022-10-16T11:15:52;8.70;;;2.20;;
51495;SDS011;37572;52.094;4.870;2022-10-16T11:18:22;11.15;;;2.35;;
51495;SDS011;37572;52.094;4.870;2022-10-16T11:20:59;8.20;;;2.30;;
51495;SDS011;37572;52.094;4.870;2022-10-16T11:23:35;9.20;;;2.33;;
51495;SDS011;37572;52.094;4.870;2022-10-16T11:26:12;10.40;;;2.55;;
51495;SDS011;37572;52.094;4.870;2022-10-16T11:28:50;11.85;;;2.90;;
51495;SDS011;37572;52.094;4.870;2022-10-16T11:31:22;9.88;;;2.00;;
51495;SDS011;37572;52.094;4.870;2022-10-16T11:34:13;13.63;;;2.28;;
51495;SDS011;37572;52.094;4.870;2022-10-16T11:37:02;13.60;;;2.75;;
51495;SDS011;37572;52.094;4.870;2022-10-16T11:39:30;7.97;;;1.80;;
51495;SDS011;37572;52.094;4.870;2022-10-16T11:41:59;12.43;;;2.35;;
51495;SDS011;37572;52.094;4.870;2022-10-16T11:55:32;10.93;;;2.40;;
51495;SDS011;37572;52.094;4.870;2022-10-16T11:58:03;12.93;;;2.33;;
51495;SDS011;37572;52.094;4.870;2022-10-16T12:00:47;8.90;;;2.03;;
51495;SDS011;37572;52.094;4.870;2022-10-16T12:08:28;13.98;;;2.50;;
51495;SDS011;37572;52.094;4.870;2022-10-16T12:10:54;6.38;;;2.05;;
51495;SDS011;37572;52.094;4.870;2022-10-16T12:13:33;10.38;;;2.83;;
51495;SDS011;37572;52.094;4.870;2022-10-16T12:16:08;9.00;;;2.63;;
51495;SDS011;37572;52.094;4.870;2022-10-16T12:18:46;8.98;;;2.17;;
51495;SDS011;37572;52.094;4.870;2022-10-16T12:21:13;9.90;;;2.53;;
51495;SDS011;37572;52.094;4.870;2022-10-16T12:23:54;12.65;;;2.80;;
51495;SDS011;37572;52.094;4.870;2022-10-16T12:26:24;8.00;;;2.42;;
51495;SDS011;37572;52.094;4.870;2022-10-16T12:28:51;11.50;;;2.15;;
51495;SDS011;37572;52.094;4.870;2022-10-16T12:31:17;7.28;;;2.25;;
51495;SDS011;37572;52.094;4.870;2022-10-16T12:33:52;10.07;;;2.97;;
51495;SDS011;37572;52.094;4.870;2022-10-16T12:36:34;6.22;;;2.08;;
51495;SDS011;37572;52.094;4.870;2022-10-16T12:39:00;8.43;;;2.08;;
51495;SDS011;37572;52.094;4.870;2022-10-16T12:41:30;8.18;;;2.65;;
51495;SDS011;37572;52.094;4.870;2022-10-16T12:44:00;8.50;;;2.03;;
51495;SDS011;37572;52.094;4.870;2022-10-16T12:49:04;11.98;;;2.80;;
51495;SDS011;37572;52.094;4.870;2022-10-16T12:51:36;7.13;;;2.50;;
51495;SDS011;37572;52.094;4.870;2022-10-16T12:54:03;7.95;;;2.53;;
51495;SDS011;37572;52.094;4.870;2022-10-16T13:11:17;11.32;;;2.38;;
51495;SDS011;37572;52.094;4.870;2022-10-16T13:16:42;13.20;;;2.63;;
51495;SDS011;37572;52.094;4.870;2022-10-16T13:19:33;16.35;;;2.83;;
51495;SDS011;37572;52.094;4.870;2022-10-16T13:22:17;12.20;;;2.60;;
51495;SDS011;37572;52.094;4.870;2022-10-16T13:27:46;11.02;;;2.58;;
51495;SDS011;37572;52.094;4.870;2022-10-16T13:30:23;9.57;;;2.53;;
51495;SDS011;37572;52.094;4.870;2022-10-16T13:32:54;9.60;;;1.97;;
51495;SDS011;37572;52.094;4.870;2022-10-16T13:35:52;13.30;;;2.97;;
51495;SDS011;37572;52.094;4.870;2022-10-16T13:38:20;14.05;;;2.53;;
51495;SDS011;37572;52.094;4.870;2022-10-16T13:40:57;11.65;;;2.22;;
51495;SDS011;37572;52.094;4.870;2022-10-16T13:43:40;16.25;;;2.60;;
51495;SDS011;37572;52.094;4.870;2022-10-16T13:46:13;9.10;;;2.38;;
51495;SDS011;37572;52.094;4.870;2022-10-16T13:48:44;11.65;;;2.65;;
51495;SDS011;37572;52.094;4.870;2022-10-16T13:51:20;11.65;;;3.00;;
51495;SDS011;37572;52.094;4.870;2022-10-16T13:53:46;13.57;;;2.40;;
51495;SDS011;37572;52.094;4.870;2022-10-16T13:56:12;13.48;;;2.50;;
51495;SDS011;37572;52.094;4.870;2022-10-16T13:58:43;12.07;;;2.83;;
51495;SDS011;37572;52.094;4.870;2022-10-16T14:03:43;14.88;;;3.47;;
51495;SDS011;37572;52.094;4.870;2022-10-16T14:06:16;10.25;;;2.40;;
51495;SDS011;37572;52.094;4.870;2022-10-16T14:08:48;8.43;;;2.53;;
51495;SDS011;37572;52.094;4.870;2022-10-16T14:11:20;9.55;;;2.08;;
51495;SDS011;37572;52.094;4.870;2022-10-16T14:13:49;9.35;;;2.00;;
51495;SDS011;37572;52.094;4.870;2022-10-16T14:16:17;11.55;;;2.30;;
51495;SDS011;37572;52.094;4.870;2022-10-16T14:19:06;11.43;;;2.38;;
51495;SDS011;37572;52.094;4.870;2022-10-16T14:21:31;13.00;;;2.97;;
51495;SDS011;37572;52.094;4.870;2022-10-16T14:23:58;10.43;;;1.83;;
51495;SDS011;37572;52.094;4.870;2022-10-16T14:26:24;10.15;;;2.05;;
51495;SDS011;37572;52.094;4.870;2022-10-16T14:29:03;6.35;;;1.73;;
51495;SDS011;37572;52.094;4.870;2022-10-16T14:31:38;6.93;;;1.77;;
51495;SDS011;37572;52.094;4.870;2022-10-16T14:34:04;9.13;;;2.47;;
51495;SDS011;37572;52.094;4.870;2022-10-16T14:36:49;14.07;;;3.03;;
51495;SDS011;37572;52.094;4.870;2022-10-16T14:39:19;14.55;;;2.47;;
51495;SDS011;37572;52.094;4.870;2022-10-16T14:41:47;11.93;;;2.40;;
51495;SDS011;37572;52.094;4.870;2022-10-16T14:44:14;9.10;;;1.70;;
51495;SDS011;37572;52.094;4.870;2022-10-16T14:46:42;10.63;;;2.40;;
51495;SDS011;37572;52.094;4.870;2022-10-16T14:51:34;15.68;;;2.97;;
51495;SDS011;37572;52.094;4.870;2022-10-16T14:54:00;13.35;;;2.78;;
51495;SDS011;37572;52.094;4.870;2022-10-16T14:56:30;14.20;;;2.80;;
51495;SDS011;37572;52.094;4.870;2022-10-16T14:59:00;15.02;;;2.88;;
51495;SDS011;37572;52.094;4.870;2022-10-16T15:01:25;8.18;;;2.60;;
51495;SDS011;37572;52.094;4.870;2022-10-16T15:03:51;9.05;;;1.77;;
51495;SDS011;37572;52.094;4.870;2022-10-16T15:06:19;11.65;;;2.25;;
51495;SDS011;37572;52.094;4.870;2022-10-16T15:08:44;10.13;;;1.85;;
51495;SDS011;37572;52.094;4.870;2022-10-16T15:11:11;8.90;;;2.28;;
51495;SDS011;37572;52.094;4.870;2022-10-16T15:13:39;9.63;;;2.25;;
51495;SDS011;37572;52.094;4.870;2022-10-16T15:16:04;12.25;;;2.60;;
51495;SDS011;37572;52.094;4.870;2022-10-16T15:18:32;10.38;;;2.25;;
51495;SDS011;37572;52.094;4.870;2022-10-16T15:20:57;7.60;;;2.13;;
51495;SDS011;37572;52.094;4.870;2022-10-16T15:23:22;11.95;;;2.85;;
51495;SDS011;37572;52.094;4.870;2022-10-16T15:25:51;7.00;;;2.30;;
51495;SDS011;37572;52.094;4.870;2022-10-16T15:30:44;11.68;;;2.40;;
51495;SDS011;37572;52.094;4.870;2022-10-16T15:33:17;14.60;;;3.13;;
51495;SDS011;37572;52.094;4.870;2022-10-16T15:35:47;8.93;;;2.00;;
51495;SDS011;37572;52.094;4.870;2022-10-16T15:38:13;10.77;;;2.60;;
51495;SDS011;37572;52.094;4.870;2022-10-16T15:40:40;11.55;;;2.78;;
51495;SDS011;37572;52.094;4.870;2022-10-16T15:43:06;13.32;;;2.90;;
51495;SDS011;37572;52.094;4.870;2022-10-16T15:45:31;10.38;;;2.17;;
51495;SDS011;37572;52.094;4.870;2022-10-16T15:47:57;16.35;;;3.58;;
51495;SDS011;37572;52.094;4.870;2022-10-16T15:50:22;13.15;;;2.67;;
51495;SDS011;37572;52.094;4.870;2022-10-16T15:52:48;10.43;;;3.17;;
51495;SDS011;37572;52.094;4.870;2022-10-16T15:55:15;14.55;;;3.28;;
51495;SDS011;37572;52.094;4.870;2022-10-16T15:57:40;13.88;;;2.97;;
51495;SDS011;37572;52.094;4.870;2022-10-16T16:00:08;10.15;;;2.47;;
51495;SDS011;37572;52.094;4.870;2022-10-16T16:02:36;11.32;;;2.47;;
51495;SDS011;37572;52.094;4.870;2022-10-16T16:05:02;15.57;;;3.22;;
51495;SDS011;37572;52.094;4.870;2022-10-16T16:07:28;12.23;;;2.85;;
51495;SDS011;37572;52.094;4.870;2022-10-16T16:09:56;10.93;;;2.83;;
51495;SDS011;37572;52.094;4.870;2022-10-16T16:12:22;13.85;;;3.08;;
51495;SDS011;37572;52.094;4.870;2022-10-16T16:14:47;9.93;;;3.25;;
51495;SDS011;37572;52.094;4.870;2022-10-16T16:17:14;10.18;;;2.70;;
51495;SDS011;37572;52.094;4.870;2022-10-16T16:19:39;12.25;;;3.75;;
51495;SDS011;37572;52.094;4.870;2022-10-16T16:22:04;11.43;;;3.60;;
51495;SDS011;37572;52.094;4.870;2022-10-16T16:24:29;16.15;;;4.10;;
51495;SDS011;37572;52.094;4.870;2022-10-16T16:26:55;12.68;;;3.72;;
51495;SDS011;37572;52.094;4.870;2022-10-16T16:29:20;11.60;;;3.92;;
51495;SDS011;37572;52.094;4.870;2022-10-16T16:31:45;13.80;;;3.13;;
51495;SDS011;37572;52.094;4.870;2022-10-16T16:34:12;16.25;;;3.67;;
51495;SDS011;37572;52.094;4.870;2022-10-16T16:36:38;14.02;;;3.35;;
51495;SDS011;37572;52.094;4.870;2022-10-16T16:39:05;17.08;;;4.50;;
51495;SDS011;37572;52.094;4.870;2022-10-16T16:41:31;17.52;;;2.85;;
51495;SDS011;37572;52.094;4.870;2022-10-16T16:44:04;16.05;;;3.75;;
51495;SDS011;37572;52.094;4.870;2022-10-16T16:46:31;10.93;;;2.92;;
51495;SDS011;37572;52.094;4.870;2022-10-16T16:48:58;17.90;;;4.13;;